Time;durP1;ratioP1;P1;durP2;ratioP2;P2;SDS_P1;SDS_P2;PMS_P1;PMS_P2;Temp;Humidity;BMP_temperature;BMP_pressure;BME280_temperature;BME280_humidity;BME280_pressure;Samples;Min_cycle;Max_cycle;Signal;HPM_P1;HPM_P2
2023/07/25 00:01:03;;;;;;;1.43;1.33;;;18.20;99.90;;;;;;5123127;27;20602;-79
2023/07/25 00:03:30;;;;;;;3.53;2.60;;;18.20;99.90;;;;;;5123766;27;20473;-78
2023/07/25 00:05:57;;;;;;;1.67;1.43;;;18.10;99.90;;;;;;5119572;27;20437;-78
2023/07/25 00:08:24;;;;;;;1.83;1.73;;;18.00;99.90;;;;;;5121966;27;20477;-79
2023/07/25 00:10:51;;;;;;;2.87;1.87;;;18.00;99.90;;;;;;5121261;27;20482;-79
2023/07/25 00:13:18;;;;;;;3.07;2.87;;;18.10;99.90;;;;;;5125079;27;20480;-78
2023/07/25 00:15:46;;;;;;;3.57;2.30;;;18.10;99.90;;;;;;5121744;27;20470;-80
2023/07/25 00:18:13;;;;;;;2.60;2.10;;;18.00;99.90;;;;;;5121899;27;20483;-80
2023/07/25 00:20:40;;;;;;;3.03;1.80;;;18.00;99.90;;;;;;5123083;27;20447;-80
2023/07/25 00:23:07;;;;;;;5.60;3.40;;;18.00;99.90;;;;;;5117647;27;20450;-78
2023/07/25 00:25:34;;;;;;;3.73;1.90;;;18.00;99.90;;;;;;5127504;27;20456;-79
2023/07/25 00:28:01;;;;;;;2.23;2.03;;;18.00;99.90;;;;;;5121027;27;20565;-78
2023/07/25 00:30:28;;;;;;;2.37;1.87;;;18.00;99.90;;;;;;5125490;27;20479;-77
2023/07/25 00:32:56;;;;;;;3.50;1.80;;;18.10;99.90;;;;;;5125492;27;20499;-79
2023/07/25 00:35:23;;;;;;;3.67;2.23;;;18.20;99.90;;;;;;5123245;27;20517;-77
2023/07/25 00:37:50;;;;;;;2.13;1.43;;;18.20;99.90;;;;;;5123346;27;20454;-78
2023/07/25 00:40:17;;;;;;;2.03;1.83;;;18.20;99.90;;;;;;5118330;27;20493;-78
2023/07/25 00:42:44;;;;;;;1.93;1.83;;;18.20;99.90;;;;;;5122942;27;20492;-79
2023/07/25 00:45:11;;;;;;;2.20;2.00;;;18.20;99.90;;;;;;5120302;27;20499;-78
2023/07/25 00:47:39;;;;;;;1.77;1.60;;;18.10;99.90;;;;;;5120851;27;20515;-78
2023/07/25 00:50:08;;;;;;;2.10;1.47;;;18.10;99.90;;;;;;5121933;27;20457;-77
2023/07/25 00:52:35;;;;;;;2.77;1.70;;;18.10;99.90;;;;;;5122844;27;20517;-78
2023/07/25 00:55:04;;;;;;;2.20;1.17;;;18.00;99.90;;;;;;5121554;27;20462;-77
2023/07/25 00:57:31;;;;;;;1.80;1.70;;;18.00;99.90;;;;;;5118131;27;20439;-78
2023/07/25 00:59:58;;;;;;;3.07;1.50;;;18.00;99.90;;;;;;5118619;27;20464;-79
2023/07/25 01:02:26;;;;;;;2.20;1.37;;;17.90;99.90;;;;;;5123397;27;21192;-79
2023/07/25 01:04:53;;;;;;;1.53;1.00;;;17.90;99.90;;;;;;5122940;27;20936;-78
2023/07/25 01:07:22;;;;;;;2.47;1.70;;;18.00;99.90;;;;;;5125480;27;20477;-81
2023/07/25 01:09:49;;;;;;;1.57;1.33;;;18.00;99.90;;;;;;5124002;27;20531;-77
2023/07/25 01:12:16;;;;;;;2.83;1.53;;;18.00;99.90;;;;;;5124541;27;21114;-77
2023/07/25 01:14:44;;;;;;;2.00;1.90;;;18.00;99.90;;;;;;5124595;27;20473;-79
2023/07/25 01:17:13;;;;;;;2.17;1.97;;;18.00;99.90;;;;;;5120619;27;20493;-79
2023/07/25 01:19:42;;;;;;;2.17;1.60;;;18.10;99.90;;;;;;5120240;27;20469;-78
2023/07/25 01:22:09;;;;;;;3.37;1.33;;;18.10;99.90;;;;;;5120585;27;20996;-79
2023/07/25 01:24:42;;;;;;;2.73;1.80;;;18.10;99.90;;;;;;5120978;27;20478;-77
2023/07/25 01:27:09;;;;;;;2.10;1.90;;;18.10;99.90;;;;;;5124318;27;20466;-78
2023/07/25 01:29:36;;;;;;;2.40;1.30;;;18.20;99.90;;;;;;5123889;27;20495;-79
2023/07/25 01:32:03;;;;;;;2.83;1.20;;;18.20;99.90;;;;;;5124478;27;20487;-77
2023/07/25 01:34:30;;;;;;;3.77;1.83;;;18.10;99.90;;;;;;5117238;27;20505;-79
2023/07/25 01:36:57;;;;;;;1.77;1.67;;;18.20;99.90;;;;;;5124372;27;20500;-81
2023/07/25 01:39:24;;;;;;;1.57;1.47;;;18.20;99.90;;;;;;5120347;27;20451;-78
2023/07/25 01:41:52;;;;;;;2.97;1.47;;;18.20;99.90;;;;;;5123386;27;20490;-78
2023/07/25 01:44:19;;;;;;;2.50;1.90;;;18.10;99.90;;;;;;5122252;27;20449;-77
2023/07/25 01:46:46;;;;;;;2.33;1.80;;;18.20;99.90;;;;;;5121144;27;20448;-78
2023/07/25 01:49:13;;;;;;;1.67;1.33;;;18.10;99.90;;;;;;5122138;27;20442;-77
2023/07/25 01:51:40;;;;;;;1.87;1.23;;;18.10;99.90;;;;;;5122987;27;20619;-77
2023/07/25 01:54:07;;;;;;;1.63;1.43;;;18.00;99.90;;;;;;5116108;28;20471;-77
2023/07/25 01:56:34;;;;;;;2.90;1.20;;;18.00;99.90;;;;;;5113889;28;20480;-78
2023/07/25 01:59:02;;;;;;;1.63;1.07;;;18.00;99.90;;;;;;5123360;28;21068;-78
2023/07/25 02:01:29;;;;;;;1.50;1.40;;;18.00;99.90;;;;;;5120245;28;20537;-78
2023/07/25 02:03:56;;;;;;;1.17;0.90;;;17.90;99.90;;;;;;5123288;28;20986;-77
2023/07/25 02:06:23;;;;;;;3.90;1.33;;;17.90;99.90;;;;;;5121825;28;20491;-79
2023/07/25 02:08:50;;;;;;;1.13;0.80;;;17.90;99.90;;;;;;5124739;28;20994;-77
2023/07/25 02:11:17;;;;;;;2.17;1.00;;;17.80;99.90;;;;;;5122803;28;20494;-78
2023/07/25 02:13:44;;;;;;;1.00;0.70;;;17.80;99.90;;;;;;5126303;28;20535;-78
2023/07/25 02:16:12;;;;;;;1.00;0.90;;;17.80;99.90;;;;;;5123594;27;20815;-77
2023/07/25 02:18:39;;;;;;;1.60;1.50;;;17.80;99.90;;;;;;5118278;28;20900;-79
2023/07/25 02:21:06;;;;;;;1.37;1.00;;;17.90;99.90;;;;;;5120212;28;20869;-77
2023/07/25 02:23:33;;;;;;;1.30;1.00;;;17.90;99.90;;;;;;5122662;27;20457;-77
2023/07/25 02:26:00;;;;;;;1.00;0.80;;;17.90;99.90;;;;;;5120003;27;20491;-79
2023/07/25 02:28:27;;;;;;;1.23;0.83;;;17.90;99.90;;;;;;5118869;27;20526;-81
2023/07/25 02:30:54;;;;;;;1.47;0.90;;;17.80;99.90;;;;;;5125752;27;20526;-78
2023/07/25 02:33:22;;;;;;;1.90;0.93;;;17.80;99.90;;;;;;5126800;27;20445;-78
2023/07/25 02:35:50;;;;;;;2.07;1.13;;;17.70;99.90;;;;;;5123048;27;20506;-77
2023/07/25 02:38:17;;;;;;;0.70;0.70;;;17.70;99.90;;;;;;5126026;27;20453;-77
2023/07/25 02:40:45;;;;;;;1.73;1.20;;;17.60;99.90;;;;;;5122888;27;20463;-81
2023/07/25 02:43:12;;;;;;;0.93;0.83;;;17.60;99.90;;;;;;5120311;27;20525;-79
2023/07/25 02:45:39;;;;;;;5.93;1.17;;;17.60;99.90;;;;;;5126034;27;20477;-81
2023/07/25 02:48:06;;;;;;;0.70;0.67;;;17.60;99.90;;;;;;5124170;27;20579;-78
2023/07/25 02:50:34;;;;;;;1.77;1.50;;;17.60;99.90;;;;;;5122251;27;20447;-77
2023/07/25 02:53:01;;;;;;;1.23;1.00;;;17.60;99.90;;;;;;5124588;27;20518;-77
2023/07/25 02:55:30;;;;;;;0.70;0.70;;;17.50;99.90;;;;;;5122727;27;20459;-77
2023/07/25 02:57:57;;;;;;;4.93;1.47;;;17.50;99.90;;;;;;5128221;27;20502;-80
2023/07/25 03:00:24;;;;;;;1.47;1.37;;;17.50;99.90;;;;;;5128848;27;20475;-78
2023/07/25 03:02:51;;;;;;;2.27;1.20;;;17.50;99.90;;;;;;5125044;27;20510;-78
2023/07/25 03:05:18;;;;;;;0.90;0.80;;;17.40;99.90;;;;;;5127132;27;20487;-81
2023/07/25 03:07:46;;;;;;;11.00;1.77;;;17.40;99.90;;;;;;5128466;27;20438;-78
2023/07/25 03:10:13;;;;;;;1.37;1.00;;;17.30;99.90;;;;;;5123721;27;20501;-81
2023/07/25 03:12:40;;;;;;;1.00;0.90;;;17.30;99.90;;;;;;5118696;27;20554;-77
2023/07/25 03:15:08;;;;;;;1.80;1.13;;;17.40;99.90;;;;;;5124296;27;20449;-78
2023/07/25 03:17:35;;;;;;;1.90;1.13;;;17.30;99.90;;;;;;5120190;27;20463;-77
2023/07/25 03:20:03;;;;;;;2.47;0.93;;;17.30;99.90;;;;;;5126979;27;20480;-77
2023/07/25 03:22:29;;;;;;;1.97;1.20;;;17.40;99.90;;;;;;5124479;27;20980;-78
2023/07/25 03:24:58;;;;;;;2.30;0.87;;;17.40;99.90;;;;;;5128037;27;20467;-78
2023/07/25 03:27:26;;;;;;;1.17;0.87;;;17.40;99.90;;;;;;5122640;27;20553;-78
2023/07/25 03:29:53;;;;;;;1.23;1.00;;;17.40;99.90;;;;;;5123870;27;20969;-78
2023/07/25 03:32:20;;;;;;;1.20;0.90;;;17.40;99.90;;;;;;5123278;27;20486;-80
2023/07/25 03:34:47;;;;;;;1.57;1.00;;;17.40;99.90;;;;;;5125949;27;20910;-78
2023/07/25 03:37:14;;;;;;;1.67;1.00;;;17.50;99.90;;;;;;5127289;27;20533;-80
2023/07/25 03:39:41;;;;;;;2.50;1.23;;;17.50;99.90;;;;;;5124093;27;20445;-78
2023/07/25 03:42:09;;;;;;;1.10;0.97;;;17.50;99.90;;;;;;5125216;27;20990;-78
2023/07/25 03:44:36;;;;;;;0.90;0.60;;;17.50;99.90;;;;;;5126443;27;20449;-80
2023/07/25 03:47:03;;;;;;;0.80;0.80;;;17.50;99.90;;;;;;5121839;27;20499;-78
2023/07/25 03:49:30;;;;;;;1.20;0.90;;;17.60;99.90;;;;;;5122120;27;21003;-78
2023/07/25 03:51:57;;;;;;;1.73;0.70;;;17.60;99.90;;;;;;5125162;27;20526;-81
2023/07/25 03:54:25;;;;;;;2.00;1.27;;;17.60;99.90;;;;;;5127121;27;20446;-76
2023/07/25 03:56:52;;;;;;;3.23;1.40;;;17.70;99.90;;;;;;5124526;27;20487;-81
2023/07/25 03:59:21;;;;;;;1.83;1.00;;;17.80;99.90;;;;;;5126724;27;20484;-78
2023/07/25 04:01:48;;;;;;;0.73;0.70;;;17.80;99.90;;;;;;5120834;27;20577;-78
2023/07/25 04:04:15;;;;;;;1.40;1.30;;;17.80;99.90;;;;;;5127707;27;20467;-78
2023/07/25 04:06:42;;;;;;;3.70;1.80;;;17.80;99.90;;;;;;5124986;27;20488;-79
2023/07/25 04:09:09;;;;;;;1.40;1.30;;;17.70;99.90;;;;;;5124051;27;20457;-78
2023/07/25 04:11:36;;;;;;;1.30;1.07;;;17.80;99.90;;;;;;5120630;27;20544;-77
2023/07/25 04:14:03;;;;;;;1.93;1.37;;;17.70;99.90;;;;;;5121012;27;20474;-77
2023/07/25 04:16:31;;;;;;;1.20;1.10;;;17.70;99.90;;;;;;5126148;27;21380;-78
2023/07/25 04:18:58;;;;;;;2.03;1.57;;;17.70;99.90;;;;;;5124535;27;20958;-77
2023/07/25 04:21:25;;;;;;;1.83;1.13;;;17.80;99.90;;;;;;5122268;27;20503;-78
2023/07/25 04:23:52;;;;;;;2.10;1.37;;;17.80;99.90;;;;;;5116594;27;20464;-77
2023/07/25 04:26:19;;;;;;;2.90;1.30;;;17.80;99.90;;;;;;5125136;27;20448;-78
2023/07/25 04:28:48;;;;;;;1.20;1.10;;;17.70;99.90;;;;;;5126534;27;20588;-79
2023/07/25 04:31:15;;;;;;;2.20;1.43;;;17.70;99.90;;;;;;5121906;27;20454;-78
2023/07/25 04:33:43;;;;;;;3.30;1.90;;;17.70;99.90;;;;;;5124266;27;20462;-80
2023/07/25 04:36:10;;;;;;;2.10;1.30;;;17.70;99.90;;;;;;5118482;27;20453;-80
2023/07/25 04:38:37;;;;;;;2.53;1.20;;;17.60;99.90;;;;;;5122674;27;20556;-76
2023/07/25 04:41:04;;;;;;;1.63;1.27;;;17.60;99.90;;;;;;5123248;27;20440;-77
2023/07/25 04:43:31;;;;;;;1.83;1.43;;;17.60;99.90;;;;;;5126381;27;20448;-77
2023/07/25 04:45:58;;;;;;;3.27;1.20;;;17.50;99.90;;;;;;5119196;27;20510;-77
2023/07/25 04:48:25;;;;;;;5.63;1.47;;;17.50;99.90;;;;;;5119093;27;20464;-77
2023/07/25 04:50:53;;;;;;;1.20;1.00;;;17.50;99.90;;;;;;5123188;27;20448;-78
2023/07/25 04:53:20;;;;;;;3.70;2.30;;;17.50;99.90;;;;;;5116549;27;20575;-84
2023/07/25 04:55:47;;;;;;;3.10;1.30;;;17.40;99.90;;;;;;5124379;27;20453;-79
2023/07/25 04:58:14;;;;;;;1.60;1.37;;;17.50;99.90;;;;;;5119364;27;20447;-81
2023/07/25 05:00:41;;;;;;;5.33;1.97;;;17.40;99.90;;;;;;5122861;27;20455;-77
2023/07/25 05:03:08;;;;;;;2.40;0.97;;;17.40;99.90;;;;;;5119751;27;20982;-77
2023/07/25 05:05:35;;;;;;;3.37;1.57;;;17.40;99.90;;;;;;5126068;27;20554;-77
2023/07/25 05:08:03;;;;;;;1.20;1.10;;;17.40;99.90;;;;;;5126499;27;20542;-78
2023/07/25 05:10:31;;;;;;;1.77;1.00;;;17.30;99.90;;;;;;5126417;27;20981;-77
2023/07/25 05:12:58;;;;;;;1.70;1.37;;;17.30;99.90;;;;;;5126088;27;20482;-80
2023/07/25 05:15:25;;;;;;;2.30;1.00;;;17.30;99.90;;;;;;5126210;27;20465;-77
2023/07/25 05:17:52;;;;;;;2.20;1.43;;;17.20;99.90;;;;;;5123442;27;20494;-78
2023/07/25 05:20:19;;;;;;;6.60;2.50;;;17.30;99.90;;;;;;5125331;27;21239;-77
2023/07/25 05:22:46;;;;;;;2.07;1.73;;;17.30;99.90;;;;;;5122471;27;20458;-77
2023/07/25 05:25:14;;;;;;;1.90;1.57;;;17.30;99.90;;;;;;5122166;27;20494;-77
2023/07/25 05:27:41;;;;;;;1.37;1.13;;;17.30;99.90;;;;;;5126290;27;20478;-77
2023/07/25 05:30:08;;;;;;;3.37;2.03;;;17.30;99.90;;;;;;5123969;27;20481;-78
2023/07/25 05:32:35;;;;;;;2.07;1.63;;;17.30;99.90;;;;;;5124082;27;20510;-79
2023/07/25 05:35:02;;;;;;;2.23;1.77;;;17.10;99.90;;;;;;5126788;27;20490;-77
2023/07/25 05:37:35;;;;;;;8.33;2.23;;;17.10;99.90;;;;;;5123000;27;20545;-77
2023/07/25 05:40:02;;;;;;;4.30;1.67;;;17.00;99.90;;;;;;5124967;27;20469;-77
2023/07/25 05:42:31;;;;;;;2.57;1.50;;;17.00;99.90;;;;;;5125280;27;21152;-79
2023/07/25 05:44:58;;;;;;;2.70;1.90;;;17.00;99.90;;;;;;5125809;27;20482;-77
2023/07/25 05:47:25;;;;;;;1.40;1.20;;;17.00;99.90;;;;;;5119761;27;20481;-77
2023/07/25 05:49:52;;;;;;;2.23;1.90;;;16.90;99.90;;;;;;5122921;27;20459;-77
2023/07/25 05:52:19;;;;;;;2.87;1.67;;;16.90;99.90;;;;;;5125174;27;20569;-78
2023/07/25 05:54:46;;;;;;;2.90;2.60;;;16.90;99.90;;;;;;5120072;28;20933;-77
2023/07/25 05:57:13;;;;;;;2.70;2.00;;;16.90;99.90;;;;;;5114801;28;21135;-77
2023/07/25 05:59:43;;;;;;;5.80;1.90;;;17.00;99.90;;;;;;5119279;27;20514;-77
2023/07/25 06:02:11;;;;;;;2.13;1.93;;;17.10;99.90;;;;;;5115864;28;20457;-82
2023/07/25 06:04:38;;;;;;;1.83;1.73;;;17.10;99.90;;;;;;5124210;27;20439;-77
2023/07/25 06:07:06;;;;;;;2.00;1.57;;;17.00;99.90;;;;;;5127663;27;20460;-78
2023/07/25 06:09:33;;;;;;;1.60;1.50;;;17.00;99.90;;;;;;5129474;27;20535;-77
2023/07/25 06:12:00;;;;;;;2.20;1.63;;;17.00;99.90;;;;;;5124818;27;20497;-78
2023/07/25 06:14:27;;;;;;;3.93;1.37;;;17.00;99.90;;;;;;5121194;27;20485;-77
2023/07/25 06:16:55;;;;;;;2.30;1.20;;;17.10;99.90;;;;;;5126179;27;20527;-81
2023/07/25 06:19:22;;;;;;;1.87;1.10;;;17.10;99.90;;;;;;5124898;27;20503;-82
2023/07/25 06:21:49;;;;;;;2.53;2.33;;;17.00;99.90;;;;;;5125904;27;20507;-78
2023/07/25 06:24:17;;;;;;;1.90;1.20;;;17.20;99.90;;;;;;5120672;27;20460;-79
2023/07/25 06:26:44;;;;;;;1.60;1.03;;;17.30;99.90;;;;;;5125237;27;20528;-78
2023/07/25 06:29:11;;;;;;;2.70;1.73;;;17.40;99.90;;;;;;5129229;27;20471;-78
2023/07/25 06:31:40;;;;;;;2.33;2.13;;;17.30;99.90;;;;;;5125227;27;20515;-79
2023/07/25 06:34:08;;;;;;;1.37;1.27;;;17.50;99.90;;;;;;5128984;27;20500;-78
2023/07/25 06:36:35;;;;;;;0.93;0.90;;;17.70;99.90;;;;;;5130312;27;20496;-77
2023/07/25 06:39:02;;;;;;;2.10;1.50;;;17.50;99.90;;;;;;5127987;27;20563;-79
2023/07/25 06:41:31;;;;;;;2.10;1.10;;;17.30;99.90;;;;;;5126483;27;20462;-79
2023/07/25 06:43:58;;;;;;;1.87;1.63;;;17.20;99.90;;;;;;5126260;27;20456;-80
2023/07/25 06:46:25;;;;;;;2.60;1.27;;;17.10;99.90;;;;;;5125162;27;20467;-80
2023/07/25 06:48:52;;;;;;;2.30;1.73;;;17.00;99.90;;;;;;5124895;27;20544;-77
2023/07/25 06:51:21;;;;;;;2.17;1.97;;;16.90;99.90;;;;;;5129751;27;20751;-75
2023/07/25 06:53:48;;;;;;;1.50;1.27;;;16.80;99.90;;;;;;5126853;27;20486;-78
2023/07/25 06:56:15;;;;;;;1.57;1.20;;;16.80;99.90;;;;;;5124488;27;20477;-79
2023/07/25 06:58:42;;;;;;;1.40;1.20;;;16.80;99.90;;;;;;5128709;27;20509;-82
2023/07/25 07:01:09;;;;;;;2.33;1.50;;;16.80;99.90;;;;;;5128069;27;20524;-79
2023/07/25 07:03:36;;;;;;;3.03;1.80;;;16.70;99.90;;;;;;5126217;27;20474;-76
2023/07/25 07:06:03;;;;;;;1.63;1.53;;;16.70;99.90;;;;;;5129733;27;20437;-77
2023/07/25 07:08:31;;;;;;;2.23;1.47;;;16.70;99.90;;;;;;5127786;27;20632;-79
2023/07/25 07:10:58;;;;;;;3.03;1.53;;;16.80;99.90;;;;;;5129394;27;20504;-77
2023/07/25 07:13:25;;;;;;;4.00;1.30;;;16.80;99.90;;;;;;5128299;27;20514;-79
2023/07/25 07:15:52;;;;;;;2.50;1.77;;;16.70;99.90;;;;;;5126656;27;20525;-81
2023/07/25 07:18:19;;;;;;;2.43;2.23;;;16.60;99.90;;;;;;5125773;27;20468;-77
2023/07/25 07:20:48;;;;;;;2.73;1.27;;;16.60;99.90;;;;;;5129775;27;20439;-77
2023/07/25 07:23:15;;;;;;;3.80;2.13;;;16.60;99.90;;;;;;5125371;27;20491;-78
2023/07/25 07:25:44;;;;;;;3.10;2.60;;;16.70;99.90;;;;;;5129782;27;21164;-80
2023/07/25 07:28:12;;;;;;;3.57;2.90;;;16.60;99.90;;;;;;5128297;27;20461;-79
2023/07/25 07:30:40;;;;;;;9.10;2.13;;;16.60;99.90;;;;;;5121795;27;20477;-81
2023/07/25 07:33:07;;;;;;;1.83;1.20;;;16.60;99.90;;;;;;5122459;27;21018;-82
2023/07/25 07:35:33;;;;;;;2.57;2.17;;;16.60;99.90;;;;;;5126874;27;20502;-78
2023/07/25 07:38:00;;;;;;;2.70;2.50;;;16.70;99.90;;;;;;5121284;27;20486;-75
2023/07/25 07:40:28;;;;;;;1.77;1.60;;;16.60;99.90;;;;;;5126208;27;20477;-82
2023/07/25 07:42:56;;;;;;;4.03;2.20;;;16.70;99.90;;;;;;5126194;27;20482;-77
2023/07/25 07:45:24;;;;;;;3.10;2.00;;;16.60;99.90;;;;;;5126728;27;20449;-79
2023/07/25 07:47:52;;;;;;;2.73;2.50;;;16.70;99.90;;;;;;5123546;27;20461;-77
2023/07/25 07:50:19;;;;;;;3.30;2.57;;;16.60;99.90;;;;;;5126137;27;20454;-77
2023/07/25 07:52:46;;;;;;;2.80;2.60;;;16.60;99.90;;;;;;5126040;27;20507;-76
2023/07/25 07:55:14;;;;;;;2.17;1.97;;;16.60;99.90;;;;;;5121518;27;20514;-78
2023/07/25 07:57:42;;;;;;;2.10;1.80;;;16.60;99.90;;;;;;5125014;27;20503;-76
2023/07/25 08:00:13;;;;;;;3.70;2.60;;;16.60;99.90;;;;;;5122554;27;20482;-77
2023/07/25 08:02:40;;;;;;;5.60;3.17;;;16.50;99.90;;;;;;5125146;27;20477;-77
2023/07/25 08:05:08;;;;;;;4.70;3.30;;;16.50;99.90;;;;;;5121651;27;20526;-76
2023/07/25 08:07:35;;;;;;;2.60;2.40;;;16.60;99.90;;;;;;5115091;27;20494;-77
2023/07/25 08:10:03;;;;;;;2.90;2.60;;;16.70;99.90;;;;;;5117282;27;20572;-78
2023/07/25 08:12:30;;;;;;;3.40;2.67;;;16.80;99.90;;;;;;5114313;27;20494;-77
2023/07/25 08:14:57;;;;;;;1.90;1.80;;;16.90;99.90;;;;;;5110306;27;20463;-77
2023/07/25 08:17:25;;;;;;;4.47;3.53;;;16.90;99.90;;;;;;5118379;27;20482;-79
2023/07/25 08:19:52;;;;;;;3.67;3.37;;;17.10;99.90;;;;;;5110207;27;20557;-77
2023/07/25 08:22:19;;;;;;;3.23;2.93;;;17.20;99.90;;;;;;5109741;27;21289;-78
2023/07/25 08:24:46;;;;;;;3.23;2.37;;;17.30;99.90;;;;;;5116813;27;20548;-78
2023/07/25 08:27:13;;;;;;;3.77;3.47;;;17.30;99.90;;;;;;5117916;27;20554;-78
2023/07/25 08:29:41;;;;;;;3.93;3.50;;;17.40;99.90;;;;;;5113933;27;20548;-79
2023/07/25 08:32:10;;;;;;;2.63;2.40;;;17.60;99.90;;;;;;5126538;27;20464;-78
2023/07/25 08:34:41;;;;;;;4.23;2.30;;;17.80;99.90;;;;;;5120354;27;20489;-79
2023/07/25 08:37:08;;;;;;;2.67;2.47;;;18.00;99.90;;;;;;5125609;27;20440;-78
2023/07/25 08:39:35;;;;;;;3.40;3.10;;;18.20;99.90;;;;;;5122580;27;20464;-79
2023/07/25 08:42:06;;;;;;;3.57;3.00;;;18.20;99.90;;;;;;5124015;27;20465;-79
2023/07/25 08:44:34;;;;;;;2.20;1.83;;;18.30;99.90;;;;;;5118766;27;20459;-80
2023/07/25 08:47:05;;;;;;;2.03;1.63;;;18.40;99.90;;;;;;5124268;27;20937;-81
2023/07/25 08:49:37;;;;;;;3.20;2.37;;;18.70;99.90;;;;;;5122321;27;20451;-77
2023/07/25 08:52:06;;;;;;;2.83;2.37;;;18.90;99.90;;;;;;5124653;27;20507;-78
2023/07/25 08:54:36;;;;;;;3.63;1.60;;;19.20;99.90;;;;;;5123336;27;21161;-79
2023/07/25 08:57:04;;;;;;;1.57;1.07;;;19.30;99.90;;;;;;5125607;27;20499;-79
2023/07/25 08:59:32;;;;;;;1.70;1.60;;;19.40;99.90;;;;;;5114662;27;21621;-78
2023/07/25 09:01:59;;;;;;;2.23;2.03;;;19.30;99.90;;;;;;5119781;27;20471;-78
2023/07/25 09:04:27;;;;;;;6.03;1.77;;;19.70;99.90;;;;;;5121435;27;20462;-79
2023/07/25 09:06:54;;;;;;;3.17;1.57;;;20.00;99.90;;;;;;5125834;27;20441;-78
2023/07/25 09:09:23;;;;;;;6.10;2.07;;;20.00;99.90;;;;;;5118084;27;20524;-81
2023/07/25 09:11:51;;;;;;;3.10;2.70;;;20.10;99.90;;;;;;5121656;27;20478;-79
2023/07/25 09:14:18;;;;;;;2.33;2.13;;;20.30;99.90;;;;;;5115866;27;20887;-78
2023/07/25 09:16:45;;;;;;;1.60;1.50;;;20.30;99.90;;;;;;5121353;27;20511;-79
2023/07/25 09:19:12;;;;;;;2.47;1.30;;;20.50;99.90;;;;;;5125580;27;20446;-78
2023/07/25 09:21:50;;;;;;;2.10;1.90;;;20.60;99.90;;;;;;5125765;27;20481;-77
2023/07/25 09:24:17;;;;;;;1.93;1.70;;;21.20;99.90;;;;;;5116856;27;20509;-78
2023/07/25 09:26:50;;;;;;;3.90;1.97;;;20.80;99.90;;;;;;5124201;27;20789;-78
2023/07/25 09:29:18;;;;;;;2.90;1.80;;;21.00;99.90;;;;;;5121387;27;20714;-78
2023/07/25 09:31:46;;;;;;;2.83;2.30;;;20.70;99.90;;;;;;5122402;27;21030;-79
2023/07/25 09:34:17;;;;;;;2.60;1.73;;;21.00;99.90;;;;;;5121331;27;20485;-81
2023/07/25 09:36:47;;;;;;;2.00;1.60;;;21.10;99.90;;;;;;5114986;27;20462;-78
2023/07/25 09:39:15;;;;;;;1.93;1.80;;;21.30;99.90;;;;;;5122486;27;20457;-78
2023/07/25 09:41:43;;;;;;;1.23;1.13;;;21.10;99.90;;;;;;5118871;27;20524;-79
2023/07/25 09:44:11;;;;;;;1.50;1.40;;;21.30;99.90;;;;;;5118742;27;20545;-79
2023/07/25 09:46:38;;;;;;;2.57;1.20;;;21.70;99.90;;;;;;5117966;27;20493;-81
2023/07/25 09:49:05;;;;;;;2.77;1.73;;;21.40;99.90;;;;;;5118930;27;20546;-80
2023/07/25 09:51:32;;;;;;;1.77;1.57;;;21.90;99.90;;;;;;5117824;27;20462;-81
2023/07/25 09:53:59;;;;;;;3.43;1.93;;;22.20;99.90;;;;;;5119387;27;21063;-77
2023/07/25 09:56:27;;;;;;;1.93;1.80;;;22.50;99.90;;;;;;5121393;27;20435;-78
2023/07/25 09:58:54;;;;;;;1.10;1.00;;;22.40;99.90;;;;;;5119190;27;20457;-79
2023/07/25 10:01:24;;;;;;;1.47;1.37;;;22.60;99.90;;;;;;5122829;27;20446;-78
2023/07/25 10:03:54;;;;;;;1.60;1.10;;;22.60;99.90;;;;;;5122897;28;20944;-78
2023/07/25 10:06:21;;;;;;;1.20;1.10;;;22.30;99.90;;;;;;5125575;28;20533;-81
2023/07/25 10:08:49;;;;;;;2.70;2.10;;;21.90;99.90;;;;;;5125758;28;20438;-79
2023/07/25 10:11:17;;;;;;;2.43;1.60;;;22.10;99.90;;;;;;5125485;28;21025;-81
2023/07/25 10:13:44;;;;;;;2.17;1.63;;;22.40;99.90;;;;;;5126207;28;20483;-79
2023/07/25 10:16:14;;;;;;;3.20;1.80;;;22.40;99.90;;;;;;5124091;28;20445;-80
2023/07/25 10:18:42;;;;;;;3.43;1.73;;;22.00;99.90;;;;;;5116854;28;20462;-78
2023/07/25 10:21:11;;;;;;;1.40;1.10;;;21.60;99.90;;;;;;5126567;28;20438;-78
2023/07/25 10:23:39;;;;;;;1.27;1.03;;;21.30;99.90;;;;;;5126037;28;20448;-78
2023/07/25 10:26:13;;;;;;;1.67;1.30;;;21.50;99.90;;;;;;5124312;28;20449;-79
2023/07/25 10:28:40;;;;;;;2.23;1.23;;;21.70;99.90;;;;;;5123315;28;20538;-78
2023/07/25 10:31:08;;;;;;;3.13;1.53;;;21.60;99.90;;;;;;5122497;27;20467;-78
2023/07/25 10:33:38;;;;;;;1.10;1.00;;;21.40;99.90;;;;;;5125272;27;20580;-78
2023/07/25 10:36:21;;;;;;;1.47;1.13;;;20.90;99.90;;;;;;5122960;27;21004;-77
2023/07/25 10:38:48;;;;;;;1.77;1.60;;;20.80;99.90;;;;;;5122448;28;20530;-79
2023/07/25 10:41:16;;;;;;;2.00;1.50;;;21.00;99.90;;;;;;5122501;27;20929;-77
2023/07/25 10:44:00;;;;;;;1.80;1.30;;;21.10;99.90;;;;;;5123496;27;20453;-77
2023/07/25 10:46:31;;;;;;;2.40;1.83;;;21.00;99.90;;;;;;5111200;27;20481;-79
2023/07/25 10:49:00;;;;;;;1.63;1.20;;;21.00;99.90;;;;;;5121440;27;20519;-77
2023/07/25 10:51:51;;;;;;;5.20;1.33;;;20.80;99.90;;;;;;5122846;27;20454;-78
2023/07/25 10:54:18;;;;;;;2.30;1.90;;;20.60;99.90;;;;;;5126061;27;20481;-79
2023/07/25 10:57:17;;;;;;;1.53;1.17;;;20.30;99.90;;;;;;5126015;27;20944;-80
2023/07/25 10:59:57;;;;;;;1.53;1.10;;;20.40;99.90;;;;;;5126914;27;20453;-78
2023/07/25 11:02:32;;;;;;;1.77;1.30;;;20.40;99.90;;;;;;5118622;27;20460;-80
2023/07/25 11:05:22;;;;;;;7.30;2.60;;;20.60;99.90;;;;;;5128484;27;20465;-77
2023/07/25 11:07:55;;;;;;;2.13;1.63;;;20.50;99.90;;;;;;5125582;27;20548;-78
2023/07/25 11:10:23;;;;;;;2.70;1.00;;;20.50;99.90;;;;;;5116781;27;20978;-77
2023/07/25 11:12:53;;;;;;;1.00;0.70;;;20.80;99.90;;;;;;5127100;27;20449;-77
2023/07/25 11:15:20;;;;;;;3.83;1.10;;;21.00;99.90;;;;;;5125676;27;20516;-76
2023/07/25 11:17:47;;;;;;;2.63;1.13;;;21.00;99.90;;;;;;5122475;27;20489;-77
2023/07/25 11:20:16;;;;;;;1.30;1.20;;;21.30;99.90;;;;;;5126136;27;20489;-78
2023/07/25 11:22:44;;;;;;;1.03;0.93;;;22.00;99.90;;;;;;5122101;27;21002;-78
2023/07/25 11:25:13;;;;;;;1.17;1.00;;;22.10;99.90;;;;;;5122330;27;20482;-77
2023/07/25 11:27:43;;;;;;;1.70;0.70;;;22.20;99.90;;;;;;5123070;27;20486;-78
2023/07/25 11:30:12;;;;;;;1.80;1.10;;;22.40;99.90;;;;;;5126282;27;21361;-78
2023/07/25 11:32:39;;;;;;;3.30;2.00;;;22.20;99.90;;;;;;5125248;27;20542;-76
2023/07/25 11:35:07;;;;;;;1.13;0.93;;;21.80;99.90;;;;;;5124790;27;20478;-76
2023/07/25 11:37:34;;;;;;;1.40;1.30;;;21.70;99.90;;;;;;5125496;27;20970;-80
2023/07/25 11:40:14;;;;;;;1.00;0.80;;;21.60;99.90;;;;;;5125267;27;20475;-78
2023/07/25 11:42:42;;;;;;;1.47;1.33;;;21.40;99.90;;;;;;5122814;27;20454;-75
2023/07/25 11:45:11;;;;;;;3.30;1.20;;;21.10;99.90;;;;;;5122782;27;20980;-76
2023/07/25 11:47:40;;;;;;;1.37;1.27;;;21.10;99.90;;;;;;5123666;27;20492;-78
2023/07/25 11:50:08;;;;;;;1.53;0.97;;;20.80;99.90;;;;;;5125186;27;20449;-75
2023/07/25 11:52:37;;;;;;;1.10;0.90;;;20.50;99.90;;;;;;5127237;27;21020;-75
2023/07/25 11:55:05;;;;;;;0.93;0.87;;;20.20;99.90;;;;;;5128469;27;20515;-76
2023/07/25 11:57:33;;;;;;;0.83;0.83;;;19.90;99.90;;;;;;5126578;27;20820;-77
2023/07/25 12:00:00;;;;;;;2.03;1.43;;;20.00;99.90;;;;;;5129344;27;20499;-76
2023/07/25 12:02:27;;;;;;;3.33;1.10;;;19.80;99.90;;;;;;5122960;27;20526;-75
2023/07/25 12:04:54;;;;;;;1.40;1.30;;;19.60;99.90;;;;;;5126014;27;20455;-77
2023/07/25 12:07:21;;;;;;;1.43;1.13;;;19.50;99.90;;;;;;5121132;27;20928;-76
2023/07/25 12:09:52;;;;;;;1.00;0.90;;;19.80;99.90;;;;;;5122932;27;20459;-80
2023/07/25 12:12:20;;;;;;;1.00;0.80;;;19.80;99.90;;;;;;5121044;27;21005;-76
2023/07/25 12:15:00;;;;;;;1.20;0.70;;;19.80;99.90;;;;;;5122767;27;20979;-76
2023/07/25 12:17:43;;;;;;;0.90;0.77;;;19.90;99.90;;;;;;5124629;27;20558;-77
2023/07/25 12:20:18;;;;;;;1.00;0.90;;;20.00;99.90;;;;;;5121654;27;20445;-79
2023/07/25 12:22:48;;;;;;;1.37;1.03;;;20.10;99.90;;;;;;5121404;27;20442;-78
2023/07/25 12:25:20;;;;;;;1.17;1.07;;;20.10;99.90;;;;;;5122860;27;21116;-78
2023/07/25 12:27:49;;;;;;;2.00;1.10;;;19.90;99.90;;;;;;5124784;27;20556;-78
2023/07/25 12:30:17;;;;;;;0.97;0.80;;;19.70;99.90;;;;;;5121965;27;20502;-78
2023/07/25 12:32:44;;;;;;;1.57;1.07;;;19.70;99.90;;;;;;5123149;27;20527;-77
2023/07/25 12:35:11;;;;;;;1.13;1.03;;;19.70;99.90;;;;;;5122883;27;20573;-77
2023/07/25 12:37:39;;;;;;;2.43;1.40;;;20.10;99.90;;;;;;5123046;27;20939;-78
2023/07/25 12:40:07;;;;;;;1.63;1.10;;;20.50;99.90;;;;;;5125172;27;20826;-79
2023/07/25 12:42:34;;;;;;;1.00;0.90;;;20.90;99.90;;;;;;5124927;27;20450;-77
2023/07/25 12:45:05;;;;;;;1.40;1.17;;;21.00;99.90;;;;;;5117161;27;20497;-77
2023/07/25 12:47:34;;;;;;;0.80;0.70;;;21.10;99.90;;;;;;5121234;27;20458;-80
2023/07/25 12:50:01;;;;;;;1.00;0.90;;;20.80;99.90;;;;;;5122230;27;20449;-79
2023/07/25 12:52:28;;;;;;;1.30;1.10;;;20.60;99.90;;;;;;5123203;27;20465;-76